createdAt,value
2022-12-25T00:20:03.197Z,0.50
2022-12-25T00:32:12.632Z,0.90
2022-12-25T00:39:40.869Z,0.73
2022-12-25T00:46:45.395Z,0.88
2022-12-25T00:54:10.133Z,0.70
2022-12-25T00:58:11.187Z,0.90
2022-12-25T01:13:39.012Z,0.65
2022-12-25T01:21:09.205Z,1.13
2022-12-25T01:36:51.443Z,1.52
2022-12-25T01:44:05.510Z,1.45
2022-12-25T01:53:47.530Z,1.30
2022-12-25T02:00:54.652Z,1.45
2022-12-25T02:07:48.950Z,1.42
2022-12-25T02:19:25.630Z,1.40
2022-12-25T02:26:53.336Z,1.05
2022-12-25T02:30:55.204Z,1.20
2022-12-25T02:38:27.360Z,1.70
2022-12-25T02:42:50.801Z,1.40
2022-12-25T02:46:48.088Z,1.60
2022-12-25T02:58:31.714Z,1.60
2022-12-25T03:02:20.261Z,1.92
2022-12-25T03:09:56.456Z,2.00
2022-12-25T03:13:36.848Z,1.83
2022-12-25T03:20:39.300Z,2.05
2022-12-25T03:27:34.901Z,2.50
2022-12-25T03:34:53.353Z,2.55
2022-12-25T03:42:04.541Z,2.90
2022-12-25T03:53:26.729Z,2.30
2022-12-25T03:57:35.448Z,2.22
2022-12-25T04:04:57.136Z,2.30
2022-12-25T04:08:52.722Z,1.80
2022-12-25T04:24:35.804Z,1.70
2022-12-25T04:31:55.162Z,1.10
2022-12-25T04:39:08.700Z,2.33
2022-12-25T04:42:34.601Z,1.70
2022-12-25T04:53:37.741Z,2.08
2022-12-25T05:00:22.917Z,1.88
2022-12-25T05:07:21.300Z,2.53
2022-12-25T05:19:01.842Z,1.87
2022-12-25T05:25:43.518Z,2.30
2022-12-25T05:32:50.080Z,2.35
2022-12-25T05:39:42.698Z,2.22
2022-12-25T05:46:37.280Z,2.13
2022-12-25T05:58:18.928Z,2.55
2022-12-25T06:08:59.523Z,2.85
2022-12-25T06:12:03.576Z,2.97
2022-12-25T06:18:55.203Z,2.72
2022-12-25T06:26:06.184Z,2.40
2022-12-25T06:33:05.708Z,2.42
2022-12-25T06:40:34.612Z,3.50
2022-12-25T06:52:22.349Z,3.00
2022-12-25T06:55:46.692Z,2.95
2022-12-25T06:59:54.741Z,3.70
2022-12-25T07:32:15.074Z,3.83
2022-12-25T08:06:47.506Z,4.25
2022-12-25T08:46:29.118Z,3.38
2022-12-25T08:50:18.710Z,3.83
2022-12-25T08:57:08.489Z,3.53
2022-12-25T09:03:53.570Z,3.47
2022-12-25T09:07:06.193Z,3.40
2022-12-25T09:14:16.439Z,3.58
2022-12-25T09:18:28.884Z,3.53
2022-12-25T09:44:47.521Z,2.47
2022-12-25T09:51:32.780Z,2.20
2022-12-25T09:58:27.884Z,3.40
2022-12-25T10:01:47.015Z,3.42
2022-12-25T10:13:16.288Z,3.05
2022-12-25T10:17:14.191Z,2.17
2022-12-25T10:28:34.337Z,1.55
2022-12-25T10:35:36.989Z,1.60
2022-12-25T10:42:54.970Z,2.13
2022-12-25T10:50:30.013Z,2.47
2022-12-25T10:54:12.966Z,2.05
2022-12-25T11:00:56.110Z,2.08
2022-12-25T11:12:05.297Z,2.40
2022-12-25T11:19:10.989Z,2.22
2022-12-25T11:25:58.858Z,1.77
2022-12-25T11:32:56.466Z,2.10
2022-12-25T11:39:46.338Z,2.25
2022-12-25T11:46:32.790Z,1.85
2022-12-25T11:53:53.042Z,1.75
2022-12-25T12:00:50.622Z,1.85
2022-12-25T12:12:02.925Z,1.20
2022-12-25T12:18:54.357Z,1.45
2022-12-25T12:25:49.006Z,1.58
2022-12-25T12:32:46.540Z,1.52
2022-12-25T12:39:37.230Z,1.30
2022-12-25T12:46:31.030Z,1.10
2022-12-25T12:53:33.543Z,0.90
2022-12-25T13:00:29.495Z,0.95
2022-12-25T13:11:32.698Z,1.02
2022-12-25T13:18:22.951Z,1.20
2022-12-25T13:29:31.977Z,1.20
2022-12-25T13:32:49.404Z,1.13
2022-12-25T13:39:51.653Z,0.93
2022-12-25T13:46:44.753Z,1.00
2022-12-25T13:53:32.322Z,0.93
2022-12-25T14:00:24.310Z,1.05
2022-12-25T14:11:43.068Z,0.90
2022-12-25T14:18:37.417Z,1.80
2022-12-25T14:33:55.262Z,1.63
2022-12-25T14:44:38.862Z,1.27
2022-12-25T14:51:23.709Z,1.55
2022-12-25T14:58:26.483Z,1.20
2022-12-25T15:05:42.569Z,1.38
2022-12-25T15:12:34.173Z,5.07
2022-12-25T15:19:46.502Z,2.50
2022-12-25T15:30:51.688Z,2.20
2022-12-25T15:38:03.536Z,3.10
2022-12-25T15:45:09.820Z,2.95
2022-12-25T15:47:46.786Z,2.50
2022-12-25T15:51:01.805Z,3.03
2022-12-25T15:58:09.409Z,3.22
2022-12-25T16:05:10.268Z,3.30
2022-12-25T16:11:52.884Z,2.83
2022-12-25T16:18:47.100Z,2.80
2022-12-25T16:25:51.406Z,3.25
2022-12-25T16:32:57.542Z,2.90
2022-12-25T16:39:56.997Z,1.98
2022-12-25T16:50:57.878Z,2.60
2022-12-25T16:57:47.818Z,2.58
2022-12-25T17:04:36.017Z,2.50
2022-12-25T17:11:23.902Z,2.75
2022-12-25T17:18:14.560Z,2.63
2022-12-25T17:25:05.680Z,2.33
2022-12-25T17:31:50.065Z,2.40
2022-12-25T17:48:30.309Z,1.80
2022-12-25T17:55:37.244Z,1.75
2022-12-25T18:24:07.617Z,3.35
2022-12-25T18:30:51.076Z,2.63
2022-12-25T19:04:24.412Z,2.42
2022-12-25T19:08:20.717Z,2.03
2022-12-25T19:15:12.396Z,1.65
2022-12-25T19:22:07.896Z,1.67
2022-12-25T19:28:58.251Z,1.67
2022-12-25T19:50:03.427Z,1.90
2022-12-25T19:54:03.918Z,1.98
2022-12-25T20:01:04.029Z,1.40
2022-12-25T20:15:29.147Z,2.13
2022-12-25T20:22:17.494Z,1.95
2022-12-25T20:26:05.320Z,2.28
2022-12-25T20:33:01.846Z,2.92
2022-12-25T20:57:17.126Z,1.77
2022-12-25T21:25:39.205Z,1.73
2022-12-25T21:32:37.326Z,2.03
2022-12-25T21:39:24.503Z,1.63
2022-12-25T22:04:43.440Z,1.88
2022-12-25T22:08:25.881Z,1.80
2022-12-25T22:15:40.982Z,1.35
2022-12-25T22:38:05.950Z,1.35
2022-12-25T23:09:58.214Z,1.15
2022-12-25T23:16:52.347Z,0.98
2022-12-25T23:23:56.828Z,1.45
2022-12-25T23:31:40.991Z,1.70
2022-12-25T23:34:25.446Z,1.90
2022-12-25T23:41:15.533Z,2.30
2022-12-25T23:48:02.491Z,2.38
2022-12-25T23:54:59.305Z,1.95
